createdAt,value
2022-10-14T00:01:15.061Z,22.55
2022-10-14T00:03:43.432Z,28.20
2022-10-14T00:06:17.545Z,23.35
2022-10-14T00:08:47.362Z,23.42
2022-10-14T00:11:22.583Z,26.75
2022-10-14T00:13:51.103Z,24.25
2022-10-14T00:16:46.426Z,23.70
2022-10-14T00:21:44.201Z,23.50
2022-10-14T00:24:13.174Z,23.90
2022-10-14T00:26:41.189Z,24.52
2022-10-14T00:29:12.647Z,23.35
2022-10-14T00:31:40.363Z,23.58
2022-10-14T00:34:08.006Z,20.60
2022-10-14T00:36:35.391Z,25.08
2022-10-14T00:39:02.988Z,23.10
2022-10-14T00:41:33.445Z,18.33
2022-10-14T00:44:25.594Z,18.80
2022-10-14T00:46:53.733Z,22.10
2022-10-14T00:49:31.236Z,20.85
2022-10-14T00:52:01.169Z,22.77
2022-10-14T00:54:34.846Z,25.33
2022-10-14T00:57:02.906Z,24.63
2022-10-14T00:59:31.099Z,21.75
2022-10-14T01:01:58.458Z,24.70
2022-10-14T01:04:27.053Z,24.90
2022-10-14T01:07:00.441Z,23.42
2022-10-14T01:09:29.573Z,23.70
2022-10-14T01:15:05.154Z,26.08
2022-10-14T01:18:03.093Z,25.27
2022-10-14T01:21:08.341Z,21.80
2022-10-14T01:24:14.920Z,21.15
2022-10-14T01:27:19.477Z,22.42
2022-10-14T01:29:57.863Z,22.27
2022-10-14T01:32:49.891Z,23.95
2022-10-14T01:35:19.924Z,21.85
2022-10-14T01:38:01.208Z,21.77
2022-10-14T01:40:34.771Z,24.92
2022-10-14T01:43:04.393Z,23.95
2022-10-14T01:45:34.220Z,22.17
2022-10-14T01:48:02.663Z,24.02
2022-10-14T01:50:31.582Z,24.67
2022-10-14T01:53:02.808Z,24.80
2022-10-14T01:55:33.807Z,24.35
2022-10-14T01:58:01.671Z,20.83
2022-10-14T02:00:29.241Z,24.77
2022-10-14T02:03:01.866Z,21.35
2022-10-14T02:05:37.372Z,21.62
2022-10-14T02:08:19.406Z,19.30
2022-10-14T02:11:07.354Z,17.95
2022-10-14T02:13:51.113Z,20.80
2022-10-14T02:16:23.909Z,18.92
2022-10-14T02:19:02.315Z,18.95
2022-10-14T02:21:37.925Z,16.40
2022-10-14T02:24:38.347Z,20.33
2022-10-14T02:27:10.052Z,19.25
2022-10-14T02:29:38.647Z,20.42
2022-10-14T02:32:08.349Z,19.83
2022-10-14T02:34:37.162Z,20.23
2022-10-14T02:37:09.985Z,20.33
2022-10-14T02:39:43.895Z,21.33
2022-10-14T02:42:11.299Z,18.52
2022-10-14T02:44:38.932Z,21.23
2022-10-14T02:47:06.301Z,25.67
2022-10-14T02:49:33.640Z,23.73
2022-10-14T02:52:01.255Z,23.23
2022-10-14T02:54:28.629Z,20.73
2022-10-14T02:56:58.334Z,21.83
2022-10-14T02:59:25.974Z,21.08
2022-10-14T03:01:53.463Z,19.50
2022-10-14T03:04:21.303Z,20.80
2022-10-14T03:06:48.908Z,18.92
2022-10-14T03:09:16.462Z,16.60
2022-10-14T03:11:44.345Z,17.58
2022-10-14T03:14:12.291Z,17.73
2022-10-14T03:16:39.669Z,18.27
2022-10-14T03:19:07.047Z,16.85
2022-10-14T03:21:36.251Z,18.27
2022-10-14T03:24:03.689Z,21.27
2022-10-14T03:26:31.462Z,20.27
2022-10-14T03:28:59.218Z,23.52
2022-10-14T03:31:29.035Z,21.40
2022-10-14T03:33:57.822Z,26.62
2022-10-14T03:36:26.303Z,21.02
2022-10-14T03:38:53.884Z,24.98
2022-10-14T03:41:22.288Z,23.33
2022-10-14T03:43:50.015Z,20.77
2022-10-14T03:46:17.505Z,22.95
2022-10-14T03:48:44.904Z,22.92
2022-10-14T03:51:13.193Z,22.33
2022-10-14T03:53:42.300Z,20.10
2022-10-14T03:56:10.793Z,19.30
2022-10-14T03:58:38.423Z,19.10
2022-10-14T04:01:06.476Z,18.02
2022-10-14T04:03:34.327Z,17.83
2022-10-14T04:06:01.766Z,18.90
2022-10-14T04:08:29.469Z,19.42
2022-10-14T04:10:58.736Z,18.05
2022-10-14T04:13:27.365Z,17.02
2022-10-14T04:15:54.784Z,18.12
2022-10-14T04:18:22.622Z,22.15
2022-10-14T04:20:51.280Z,17.73
2022-10-14T04:23:19.918Z,17.75
2022-10-14T04:25:49.052Z,18.45
2022-10-14T04:28:16.564Z,18.08
2022-10-14T04:30:44.420Z,19.33
2022-10-14T04:33:13.337Z,20.88
2022-10-14T04:35:41.330Z,19.55
2022-10-14T04:38:11.043Z,16.92
2022-10-14T04:40:46.148Z,17.92
2022-10-14T04:43:13.847Z,15.85
2022-10-14T04:45:41.753Z,16.98
2022-10-14T04:48:09.870Z,19.92
2022-10-14T04:50:38.002Z,23.73
2022-10-14T04:53:13.883Z,19.77
2022-10-14T04:55:44.541Z,20.60
2022-10-14T04:58:12.967Z,17.80
2022-10-14T05:00:40.742Z,17.40
2022-10-14T05:03:08.887Z,19.87
2022-10-14T05:05:36.564Z,18.20
2022-10-14T05:08:04.620Z,24.00
2022-10-14T05:10:33.695Z,21.45
2022-10-14T05:13:02.376Z,22.77
2022-10-14T05:15:30.931Z,21.42
2022-10-14T05:17:58.614Z,19.95
2022-10-14T05:20:29.250Z,19.25
2022-10-14T05:22:56.972Z,20.35
2022-10-14T05:25:24.388Z,22.55
2022-10-14T05:27:53.720Z,22.42
2022-10-14T05:30:21.451Z,24.63
2022-10-14T05:32:49.394Z,21.73
2022-10-14T05:35:33.991Z,20.60
2022-10-14T05:38:05.622Z,23.15
2022-10-14T05:40:35.890Z,17.17
2022-10-14T05:43:05.064Z,22.70
2022-10-14T05:45:33.525Z,27.10
2022-10-14T05:48:02.013Z,26.27
2022-10-14T05:50:29.848Z,29.25
2022-10-14T05:53:01.730Z,24.45
2022-10-14T05:55:29.329Z,23.27
2022-10-14T05:57:57.463Z,22.73
2022-10-14T06:00:27.186Z,23.87
2022-10-14T06:02:57.658Z,19.40
2022-10-14T06:05:25.520Z,19.73
2022-10-14T06:07:53.029Z,16.98
2022-10-14T06:10:20.698Z,21.65
2022-10-14T06:12:48.775Z,20.52
2022-10-14T06:15:16.263Z,23.33
2022-10-14T06:17:44.701Z,17.58
2022-10-14T06:20:12.300Z,18.05
2022-10-14T06:22:39.668Z,19.80
2022-10-14T06:25:07.691Z,20.08
2022-10-14T06:27:35.047Z,17.30
2022-10-14T06:30:02.480Z,20.98
2022-10-14T06:32:30.289Z,19.30
2022-10-14T06:34:58.259Z,23.40
2022-10-14T06:37:25.668Z,26.35
2022-10-14T06:39:53.318Z,21.83
2022-10-14T06:42:20.734Z,22.15
2022-10-14T06:44:48.158Z,24.23
2022-10-14T06:47:15.922Z,24.60
2022-10-14T06:49:43.446Z,25.42
2022-10-14T06:52:10.771Z,27.08
2022-10-14T06:54:39.665Z,22.25
2022-10-14T06:57:07.844Z,28.27
2022-10-14T06:59:35.206Z,34.58
2022-10-14T07:02:03.209Z,39.22
2022-10-14T07:04:30.804Z,35.33
2022-10-14T07:06:58.656Z,31.20
2022-10-14T07:09:26.298Z,39.53
2022-10-14T07:11:53.841Z,36.03
2022-10-14T07:14:21.226Z,34.63
2022-10-14T07:16:48.930Z,33.60
2022-10-14T07:19:16.294Z,31.02
2022-10-14T07:21:45.355Z,24.77
2022-10-14T07:24:13.585Z,27.92
2022-10-14T07:26:41.048Z,26.67
2022-10-14T07:29:08.473Z,28.58
2022-10-14T07:31:36.106Z,28.73
2022-10-14T07:34:03.943Z,30.55
2022-10-14T07:36:31.354Z,27.87
2022-10-14T07:38:59.021Z,24.52
2022-10-14T07:41:26.643Z,27.70
2022-10-14T07:43:57.557Z,31.00
2022-10-14T07:46:34.634Z,26.58
2022-10-14T07:49:17.088Z,25.20
2022-10-14T07:51:45.776Z,24.58
2022-10-14T07:54:16.758Z,26.33
2022-10-14T07:56:44.820Z,28.08
2022-10-14T07:59:12.897Z,24.67
2022-10-14T08:01:40.559Z,27.48
2022-10-14T08:04:10.196Z,24.15
2022-10-14T08:06:37.711Z,26.62
2022-10-14T08:09:05.854Z,21.90
2022-10-14T08:11:33.789Z,20.80
2022-10-14T08:14:01.284Z,21.17
2022-10-14T08:16:31.384Z,19.23
2022-10-14T08:19:01.722Z,22.73
2022-10-14T08:21:29.258Z,23.35
2022-10-14T08:23:56.992Z,20.77
2022-10-14T08:26:40.684Z,21.98
2022-10-14T08:29:11.181Z,22.70
2022-10-14T08:31:38.878Z,27.80
2022-10-14T08:34:06.283Z,18.58
2022-10-14T08:36:33.633Z,25.15
2022-10-14T08:39:01.273Z,24.75
2022-10-14T08:41:45.691Z,23.48
2022-10-14T08:46:54.950Z,20.48
2022-10-14T08:49:46.890Z,20.37
2022-10-14T08:52:18.211Z,20.50
2022-10-14T08:54:49.243Z,22.30
2022-10-14T08:57:22.181Z,23.30
2022-10-14T08:59:49.804Z,22.35
2022-10-14T09:02:28.329Z,19.45
2022-10-14T09:04:57.000Z,23.02
2022-10-14T09:07:24.892Z,18.12
2022-10-14T09:09:57.015Z,20.83
2022-10-14T09:12:28.437Z,23.08
2022-10-14T09:15:20.780Z,20.08
2022-10-14T09:17:57.354Z,21.55
2022-10-14T09:20:25.324Z,20.55
2022-10-14T09:22:58.580Z,20.08
2022-10-14T09:25:26.041Z,20.27
2022-10-14T09:27:53.738Z,24.92
2022-10-14T09:30:21.165Z,22.52
2022-10-14T09:32:53.623Z,21.60
2022-10-14T09:35:33.844Z,19.70
2022-10-14T09:38:01.305Z,21.87
2022-10-14T09:40:43.900Z,21.87
2022-10-14T09:43:11.186Z,21.42
2022-10-14T09:45:57.870Z,17.70
2022-10-14T09:48:55.091Z,18.08
2022-10-14T09:51:28.603Z,17.75
2022-10-14T09:53:57.716Z,23.00
2022-10-14T09:56:31.771Z,20.88
2022-10-14T09:58:59.212Z,18.92
2022-10-14T10:01:29.106Z,19.50
2022-10-14T10:03:57.289Z,17.48
2022-10-14T10:06:26.783Z,22.17
2022-10-14T10:08:55.784Z,19.67
2022-10-14T10:11:37.777Z,19.50
2022-10-14T10:14:35.358Z,20.05
2022-10-14T10:17:09.767Z,18.08
2022-10-14T10:19:38.591Z,21.42
2022-10-14T10:22:28.310Z,18.98
2022-10-14T10:25:01.414Z,20.75
2022-10-14T10:27:36.635Z,20.40
2022-10-14T10:30:22.446Z,20.12
2022-10-14T10:33:26.323Z,20.62
2022-10-14T10:39:05.657Z,17.80
2022-10-14T10:41:58.620Z,20.88
2022-10-14T10:44:30.394Z,20.08
2022-10-14T10:47:08.745Z,20.55
2022-10-14T10:50:05.041Z,19.62
2022-10-14T10:52:57.477Z,17.37
2022-10-14T10:56:13.587Z,17.67
2022-10-14T10:58:47.867Z,18.10
2022-10-14T11:01:44.840Z,18.08
2022-10-14T11:04:27.423Z,18.52
2022-10-14T11:07:33.787Z,19.95
2022-10-14T11:10:29.317Z,22.85
2022-10-14T11:13:35.477Z,19.45
2022-10-14T11:16:10.752Z,17.98
2022-10-14T11:18:50.367Z,20.65
2022-10-14T11:21:31.150Z,21.05
2022-10-14T11:24:23.795Z,18.75
2022-10-14T11:26:59.909Z,17.73
2022-10-14T11:29:49.364Z,15.38
2022-10-14T11:32:47.786Z,15.57
2022-10-14T11:35:37.839Z,20.85
2022-10-14T11:38:13.762Z,15.70
2022-10-14T11:41:00.362Z,16.37
2022-10-14T11:43:42.052Z,19.35
2022-10-14T11:46:13.208Z,17.77
2022-10-14T11:48:51.761Z,19.35
2022-10-14T11:51:24.553Z,19.92
2022-10-14T11:54:00.182Z,20.23
2022-10-14T11:56:43.060Z,20.12
2022-10-14T11:59:19.170Z,19.50
2022-10-14T12:01:48.373Z,23.55
2022-10-14T12:04:22.580Z,18.45
2022-10-14T12:06:55.798Z,21.67
2022-10-14T12:09:39.378Z,23.27
2022-10-14T12:12:09.179Z,20.15
2022-10-14T12:14:44.047Z,21.50
2022-10-14T12:17:34.489Z,23.75
2022-10-14T12:20:19.977Z,21.15
2022-10-14T12:22:48.312Z,19.77
2022-10-14T12:25:18.519Z,21.67
2022-10-14T12:27:46.050Z,21.48
2022-10-14T12:30:39.399Z,21.12
2022-10-14T12:33:09.785Z,23.60
2022-10-14T12:36:01.112Z,19.42
2022-10-14T12:38:30.131Z,21.40
2022-10-14T12:41:32.745Z,24.37
2022-10-14T12:44:03.384Z,22.60
2022-10-14T12:46:31.492Z,21.98
2022-10-14T12:49:00.418Z,20.90
2022-10-14T12:51:28.054Z,22.75
2022-10-14T12:54:06.257Z,20.00
2022-10-14T12:56:38.332Z,21.35
2022-10-14T12:59:08.291Z,20.05
2022-10-14T13:01:37.998Z,21.87
2022-10-14T13:04:07.635Z,20.23
2022-10-14T13:06:38.257Z,21.50
2022-10-14T13:09:11.900Z,21.95
2022-10-14T13:11:41.328Z,24.27
2022-10-14T13:14:26.044Z,21.52
2022-10-14T13:16:53.257Z,22.52
2022-10-14T13:19:47.230Z,24.70
2022-10-14T13:22:33.158Z,21.23
2022-10-14T13:25:14.994Z,23.23
2022-10-14T13:27:54.480Z,22.60
2022-10-14T13:30:39.665Z,20.33
2022-10-14T13:33:13.367Z,22.02
2022-10-14T13:35:50.008Z,20.20
2022-10-14T13:38:19.201Z,24.37
2022-10-14T13:40:52.215Z,24.17
2022-10-14T13:43:36.412Z,27.65
2022-10-14T13:46:26.786Z,21.75
2022-10-14T13:48:59.449Z,26.92
2022-10-14T13:51:51.166Z,24.15
2022-10-14T13:54:25.972Z,24.25
2022-10-14T13:57:38.697Z,22.60
2022-10-14T14:00:22.543Z,21.98
2022-10-14T14:02:39.876Z,20.12
2022-10-14T14:05:15.192Z,21.65
2022-10-14T14:10:31.767Z,21.58
2022-10-14T14:13:03.188Z,23.95
2022-10-14T14:15:30.572Z,21.33
2022-10-14T14:17:58.193Z,25.75
2022-10-14T14:20:33.947Z,22.10
2022-10-14T14:23:01.656Z,20.17
2022-10-14T14:25:43.258Z,24.48
2022-10-14T14:28:15.480Z,23.62
2022-10-14T14:30:54.322Z,22.85
2022-10-14T14:33:28.717Z,21.52
2022-10-14T14:35:59.039Z,22.90
2022-10-14T14:38:32.490Z,22.98
2022-10-14T14:41:19.739Z,24.42
2022-10-14T14:44:01.899Z,22.20
2022-10-14T14:46:38.009Z,21.05
2022-10-14T14:49:07.365Z,24.87
2022-10-14T14:51:39.711Z,20.98
2022-10-14T14:54:16.755Z,21.60
2022-10-14T14:56:49.939Z,21.37
2022-10-14T14:59:22.748Z,22.43
2022-10-14T15:01:50.203Z,23.70
2022-10-14T15:04:19.538Z,21.92
2022-10-14T15:07:00.616Z,24.23
2022-10-14T15:09:46.821Z,19.10
2022-10-14T15:12:31.515Z,21.42
2022-10-14T15:15:01.095Z,21.08
2022-10-14T15:17:46.066Z,19.92
2022-10-14T15:20:28.772Z,22.92
2022-10-14T15:22:56.151Z,21.83
2022-10-14T15:25:29.234Z,22.50
2022-10-14T15:27:58.800Z,23.33
2022-10-14T15:30:40.091Z,24.85
2022-10-14T15:33:16.198Z,27.17
2022-10-14T15:35:45.616Z,30.08
2022-10-14T15:38:16.371Z,33.53
2022-10-14T15:40:47.800Z,47.65
2022-10-14T15:43:20.624Z,41.90
2022-10-14T15:46:12.828Z,33.75
2022-10-14T15:48:42.148Z,31.58
2022-10-14T15:51:15.799Z,38.42
2022-10-14T15:53:43.201Z,53.53
2022-10-14T15:56:10.859Z,48.95
2022-10-14T15:58:38.260Z,33.97
2022-10-14T16:01:08.916Z,35.40
2022-10-14T16:03:40.896Z,36.85
2022-10-14T16:06:10.650Z,38.25
2022-10-14T16:08:39.258Z,36.75
2022-10-14T16:11:14.564Z,44.05
2022-10-14T16:16:10.229Z,37.05
2022-10-14T16:18:37.585Z,32.15
2022-10-14T16:21:05.329Z,37.00
2022-10-14T16:23:34.445Z,41.78
2022-10-14T16:26:02.051Z,41.37
2022-10-14T16:28:29.747Z,37.70
2022-10-14T16:30:59.029Z,39.22
2022-10-14T16:33:26.402Z,39.97
2022-10-14T16:35:55.973Z,36.55
2022-10-14T16:38:24.272Z,39.33
2022-10-14T16:40:59.653Z,38.65
2022-10-14T16:43:28.490Z,41.63
2022-10-14T16:46:00.575Z,39.88
2022-10-14T16:48:29.316Z,41.78
2022-10-14T16:50:56.677Z,51.90
2022-10-14T16:53:40.533Z,53.08
2022-10-14T16:56:30.430Z,57.03
2022-10-14T16:58:58.530Z,116.10
2022-10-14T17:01:26.302Z,114.88
2022-10-14T17:03:55.676Z,110.15
2022-10-14T17:06:26.555Z,107.90
2022-10-14T17:08:54.749Z,100.57
2022-10-14T17:11:22.651Z,93.50
2022-10-14T17:13:54.268Z,78.65
2022-10-14T17:16:22.336Z,59.10
2022-10-14T17:18:49.989Z,70.32
2022-10-14T17:21:17.440Z,67.80
2022-10-14T17:23:45.198Z,75.25
2022-10-14T17:26:21.090Z,63.47
2022-10-14T17:28:48.880Z,71.20
2022-10-14T17:31:20.569Z,77.72
2022-10-14T17:33:47.898Z,67.53
2022-10-14T17:36:20.844Z,68.93
2022-10-14T17:38:50.735Z,73.07
2022-10-14T17:41:19.542Z,79.00
2022-10-14T17:43:49.870Z,68.37
2022-10-14T17:46:20.813Z,50.90
2022-10-14T17:48:51.385Z,53.08
2022-10-14T17:51:23.430Z,50.33
2022-10-14T17:54:02.600Z,46.97
2022-10-14T17:56:31.442Z,47.90
2022-10-14T17:59:00.784Z,50.53
2022-10-14T18:01:37.090Z,41.13
2022-10-14T18:04:12.111Z,45.70
2022-10-14T18:06:40.165Z,40.45
2022-10-14T18:09:09.381Z,46.08
2022-10-14T18:12:07.204Z,49.45
2022-10-14T18:14:28.706Z,49.13
2022-10-14T18:16:56.524Z,78.20
2022-10-14T18:19:24.308Z,63.08
2022-10-14T18:21:53.342Z,65.70
2022-10-14T18:24:21.470Z,70.10
2022-10-14T18:26:53.978Z,87.97
2022-10-14T18:29:21.784Z,162.05
2022-10-14T18:34:24.973Z,256.23
2022-10-14T18:36:52.780Z,111.72
2022-10-14T18:39:22.015Z,106.37
2022-10-14T18:41:49.866Z,65.50
2022-10-14T18:44:17.366Z,61.37
2022-10-14T18:46:44.790Z,89.55
2022-10-14T18:49:13.167Z,58.87
2022-10-14T18:51:41.268Z,48.35
2022-10-14T18:54:15.726Z,48.55
2022-10-14T18:56:44.506Z,46.28
2022-10-14T18:59:23.543Z,43.45
2022-10-14T19:01:55.530Z,49.88
2022-10-14T19:04:25.406Z,41.83
2022-10-14T19:06:53.687Z,51.37
2022-10-14T19:09:24.822Z,54.90
2022-10-14T19:11:52.761Z,58.63
2022-10-14T19:14:22.618Z,48.60
2022-10-14T19:16:50.433Z,63.47
2022-10-14T19:19:19.910Z,71.32
2022-10-14T19:21:54.188Z,55.80
2022-10-14T19:24:22.378Z,54.60
2022-10-14T19:26:50.419Z,47.42
2022-10-14T19:29:18.307Z,45.88
2022-10-14T19:31:46.054Z,44.70
2022-10-14T19:34:15.374Z,48.30
2022-10-14T19:36:44.163Z,43.40
2022-10-14T19:39:14.852Z,42.22
2022-10-14T19:41:43.231Z,34.67
2022-10-14T19:44:11.863Z,36.72
2022-10-14T19:46:40.346Z,35.67
2022-10-14T19:49:08.453Z,34.60
2022-10-14T19:51:36.514Z,39.20
2022-10-14T19:54:04.394Z,45.10
2022-10-14T19:56:31.763Z,50.10
2022-10-14T19:58:59.845Z,58.08
2022-10-14T20:01:29.228Z,69.53
2022-10-14T20:04:01.328Z,66.68
2022-10-14T20:06:35.567Z,73.20
2022-10-14T20:09:03.700Z,61.00
2022-10-14T20:11:31.327Z,58.95
2022-10-14T20:13:58.680Z,56.30
2022-10-14T20:16:27.171Z,50.10
2022-10-14T20:18:55.499Z,45.28
2022-10-14T20:21:22.948Z,42.83
2022-10-14T20:23:50.638Z,39.47
2022-10-14T20:26:20.960Z,45.42
2022-10-14T20:28:49.509Z,52.60
2022-10-14T20:31:20.382Z,57.75
2022-10-14T20:33:48.434Z,55.55
2022-10-14T20:36:18.090Z,49.25
2022-10-14T20:38:45.913Z,47.42
2022-10-14T20:41:24.990Z,42.05
2022-10-14T20:43:54.297Z,41.95
2022-10-14T20:46:22.696Z,38.60
2022-10-14T20:48:56.581Z,39.08
2022-10-14T20:51:24.480Z,43.03
2022-10-14T20:54:00.468Z,38.58
2022-10-14T20:56:31.344Z,37.35
2022-10-14T20:58:59.889Z,42.35
2022-10-14T21:01:28.471Z,37.00
2022-10-14T21:03:56.503Z,40.63
2022-10-14T21:06:24.667Z,122.70
2022-10-14T21:08:52.470Z,76.90
2022-10-14T21:11:22.344Z,91.12
2022-10-14T21:13:52.105Z,38.58
2022-10-14T21:16:25.448Z,35.47
2022-10-14T21:19:11.527Z,39.85
2022-10-14T21:21:41.341Z,48.30
2022-10-14T21:24:12.209Z,54.13
2022-10-14T21:26:39.894Z,49.63
2022-10-14T21:29:07.345Z,65.80
2022-10-14T21:31:34.737Z,67.18
2022-10-14T21:34:06.197Z,50.83
2022-10-14T21:36:34.760Z,54.20
2022-10-14T21:39:13.625Z,50.97
2022-10-14T21:41:41.489Z,43.78
2022-10-14T21:44:11.271Z,41.67
2022-10-14T21:46:38.601Z,43.22
2022-10-14T21:49:06.217Z,54.70
2022-10-14T21:51:34.023Z,52.67
2022-10-14T21:54:01.537Z,42.80
2022-10-14T21:56:29.484Z,55.55
2022-10-14T21:58:57.110Z,50.58
2022-10-14T22:01:29.037Z,41.50
2022-10-14T22:03:58.933Z,49.58
2022-10-14T22:06:27.496Z,48.72
2022-10-14T22:08:57.941Z,45.45
2022-10-14T22:11:30.733Z,47.95
2022-10-14T22:14:00.270Z,41.92
2022-10-14T22:16:29.212Z,44.20
2022-10-14T22:18:59.012Z,39.38
2022-10-14T22:21:27.547Z,37.50
2022-10-14T22:23:55.278Z,38.42
2022-10-14T22:26:24.359Z,40.15
2022-10-14T22:29:04.306Z,39.78
2022-10-14T22:31:33.037Z,36.67
2022-10-14T22:34:01.887Z,38.38
2022-10-14T22:36:30.499Z,34.92
2022-10-14T22:39:00.091Z,41.40
2022-10-14T22:41:33.900Z,40.35
2022-10-14T22:44:04.353Z,46.28
2022-10-14T22:46:33.708Z,45.63
2022-10-14T22:49:02.045Z,56.60
2022-10-14T22:51:31.959Z,59.63
2022-10-14T22:53:59.615Z,59.22
2022-10-14T22:56:28.542Z,69.95
2022-10-14T22:59:01.163Z,76.78
2022-10-14T23:01:29.963Z,73.97
2022-10-14T23:03:58.558Z,62.92
2022-10-14T23:06:26.442Z,62.28
2022-10-14T23:08:54.447Z,52.13
2022-10-14T23:11:23.732Z,48.65
2022-10-14T23:13:51.642Z,47.38
2022-10-14T23:16:21.113Z,48.28
2022-10-14T23:18:48.984Z,41.95
2022-10-14T23:21:22.206Z,40.30
2022-10-14T23:23:51.031Z,39.83
2022-10-14T23:26:21.398Z,44.90
2022-10-14T23:28:49.988Z,46.17
2022-10-14T23:31:20.458Z,44.13
2022-10-14T23:33:49.117Z,53.97
2022-10-14T23:36:16.539Z,43.92
2022-10-14T23:38:44.194Z,47.60
2022-10-14T23:41:12.790Z,39.92
2022-10-14T23:43:40.895Z,40.67
2022-10-14T23:46:08.785Z,40.58
2022-10-14T23:48:36.607Z,40.50
2022-10-14T23:51:04.359Z,45.70
2022-10-14T23:53:32.358Z,47.88
2022-10-14T23:56:00.271Z,42.10
2022-10-14T23:58:29.644Z,46.67
